sensor_id;sensor_type;location;lat;lon;timestamp;temperature;humidity
1453;DHT22;720;47.738;7.998;2022-12-18T00:01:33;-4.40;94.50
1453;DHT22;720;47.738;7.998;2022-12-18T00:04:01;-4.50;94.40
1453;DHT22;720;47.738;7.998;2022-12-18T00:06:28;-4.50;94.40
1453;DHT22;720;47.738;7.998;2022-12-18T00:08:56;-4.40;94.50
1453;DHT22;720;47.738;7.998;2022-12-18T00:11:24;-4.30;94.30
1453;DHT22;720;47.738;7.998;2022-12-18T00:13:52;-4.30;94.30
1453;DHT22;720;47.738;7.998;2022-12-18T00:16:20;-4.40;94.30
1453;DHT22;720;47.738;7.998;2022-12-18T00:18:48;-4.40;94.40
1453;DHT22;720;47.738;7.998;2022-12-18T00:21:15;-4.40;94.20
1453;DHT22;720;47.738;7.998;2022-12-18T00:23:42;-4.40;94.10
1453;DHT22;720;47.738;7.998;2022-12-18T00:26:12;-4.40;94.10
1453;DHT22;720;47.738;7.998;2022-12-18T00:28:38;-4.50;93.90
1453;DHT22;720;47.738;7.998;2022-12-18T00:31:06;-4.60;93.90
1453;DHT22;720;47.738;7.998;2022-12-18T00:33:33;-4.70;94.00
1453;DHT22;720;47.738;7.998;2022-12-18T00:36:06;-4.70;94.00
1453;DHT22;720;47.738;7.998;2022-12-18T00:38:33;-4.60;93.60
1453;DHT22;720;47.738;7.998;2022-12-18T00:40:59;-4.60;93.50
1453;DHT22;720;47.738;7.998;2022-12-18T00:43:25;-4.60;93.50
1453;DHT22;720;47.738;7.998;2022-12-18T00:45:51;-4.60;93.60
1453;DHT22;720;47.738;7.998;2022-12-18T00:48:16;-4.70;98.10
1453;DHT22;720;47.738;7.998;2022-12-18T00:50:42;-4.70;93.70
1453;DHT22;720;47.738;7.998;2022-12-18T00:53:11;-4.70;93.70
1453;DHT22;720;47.738;7.998;2022-12-18T00:55:40;-4.90;93.70
1453;DHT22;720;47.738;7.998;2022-12-18T00:58:06;-4.80;97.90
1453;DHT22;720;47.738;7.998;2022-12-18T01:00:32;-4.80;93.80
1453;DHT22;720;47.738;7.998;2022-12-18T01:02:58;-4.80;93.70
1453;DHT22;720;47.738;7.998;2022-12-18T01:05:23;-4.90;93.70
1453;DHT22;720;47.738;7.998;2022-12-18T01:07:49;-4.90;93.80
1453;DHT22;720;47.738;7.998;2022-12-18T01:10:15;-4.80;93.90
1453;DHT22;720;47.738;7.998;2022-12-18T01:12:41;-4.80;94.10
1453;DHT22;720;47.738;7.998;2022-12-18T01:15:08;-4.80;93.80
1453;DHT22;720;47.738;7.998;2022-12-18T01:17:34;-4.90;93.80
1453;DHT22;720;47.738;7.998;2022-12-18T01:20:00;-5.00;93.90
1453;DHT22;720;47.738;7.998;2022-12-18T01:22:28;-4.90;93.80
1453;DHT22;720;47.738;7.998;2022-12-18T01:24:54;-4.90;93.70
1453;DHT22;720;47.738;7.998;2022-12-18T01:27:19;-5.10;93.60
1453;DHT22;720;47.738;7.998;2022-12-18T01:29:45;-5.00;93.80
1453;DHT22;720;47.738;7.998;2022-12-18T01:32:11;-5.10;93.80
1453;DHT22;720;47.738;7.998;2022-12-18T01:34:37;-5.00;93.90
1453;DHT22;720;47.738;7.998;2022-12-18T01:37:05;-5.00;93.70
1453;DHT22;720;47.738;7.998;2022-12-18T01:39:31;-5.00;93.40
1453;DHT22;720;47.738;7.998;2022-12-18T01:42:01;-5.00;93.40
1453;DHT22;720;47.738;7.998;2022-12-18T01:47:43;-5.10;93.30
1453;DHT22;720;47.738;7.998;2022-12-18T01:50:30;-5.10;93.40
1453;DHT22;720;47.738;7.998;2022-12-18T01:53:15;-5.10;93.50
1453;DHT22;720;47.738;7.998;2022-12-18T01:55:53;-5.00;93.50
1453;DHT22;720;47.738;7.998;2022-12-18T01:58:30;-5.00;93.50
1453;DHT22;720;47.738;7.998;2022-12-18T02:00:58;-5.00;93.40
1453;DHT22;720;47.738;7.998;2022-12-18T02:03:23;-5.00;93.10
1453;DHT22;720;47.738;7.998;2022-12-18T02:09:06;-5.10;92.70
1453;DHT22;720;47.738;7.998;2022-12-18T02:11:46;-5.10;92.80
1453;DHT22;720;47.738;7.998;2022-12-18T02:14:22;-5.10;92.90
1453;DHT22;720;47.738;7.998;2022-12-18T02:16:59;-5.10;92.90
1453;DHT22;720;47.738;7.998;2022-12-18T02:27:46;-5.10;92.80
1453;DHT22;720;47.738;7.998;2022-12-18T02:30:14;-5.10;92.70
1453;DHT22;720;47.738;7.998;2022-12-18T02:32:43;-5.20;92.60
1453;DHT22;720;47.738;7.998;2022-12-18T02:35:17;-5.20;92.50
1453;DHT22;720;47.738;7.998;2022-12-18T02:37:46;-5.20;92.50
1453;DHT22;720;47.738;7.998;2022-12-18T02:40:14;-5.30;92.60
1453;DHT22;720;47.738;7.998;2022-12-18T02:42:41;-5.40;92.70
1453;DHT22;720;47.738;7.998;2022-12-18T02:45:07;-5.30;92.80
1453;DHT22;720;47.738;7.998;2022-12-18T02:47:36;-5.30;92.80
1453;DHT22;720;47.738;7.998;2022-12-18T02:53:01;-5.30;92.60
1453;DHT22;720;47.738;7.998;2022-12-18T03:03:59;-5.40;92.30
1453;DHT22;720;47.738;7.998;2022-12-18T03:06:40;-5.40;92.30
1453;DHT22;720;47.738;7.998;2022-12-18T03:09:11;-5.30;92.40
1453;DHT22;720;47.738;7.998;2022-12-18T03:11:42;-5.40;92.40
1453;DHT22;720;47.738;7.998;2022-12-18T03:14:30;-5.40;92.50
1453;DHT22;720;47.738;7.998;2022-12-18T03:17:01;-5.40;92.30
1453;DHT22;720;47.738;7.998;2022-12-18T03:19:29;-5.50;92.20
1453;DHT22;720;47.738;7.998;2022-12-18T03:21:59;-5.60;92.30
1453;DHT22;720;47.738;7.998;2022-12-18T03:24:28;-5.60;92.30
1453;DHT22;720;47.738;7.998;2022-12-18T03:27:00;-5.70;92.20
1453;DHT22;720;47.738;7.998;2022-12-18T03:29:42;-5.80;92.10
1453;DHT22;720;47.738;7.998;2022-12-18T03:32:16;-5.80;91.90
1453;DHT22;720;47.738;7.998;2022-12-18T03:34:44;-5.80;91.80
1453;DHT22;720;47.738;7.998;2022-12-18T03:37:13;-5.90;91.80
1453;DHT22;720;47.738;7.998;2022-12-18T03:39:39;-6.00;92.00
1453;DHT22;720;47.738;7.998;2022-12-18T03:42:10;-6.00;92.10
1453;DHT22;720;47.738;7.998;2022-12-18T03:47:33;-5.90;92.10
1453;DHT22;720;47.738;7.998;2022-12-18T03:50:45;-6.00;92.10
1453;DHT22;720;47.738;7.998;2022-12-18T03:53:15;-6.10;92.00
1453;DHT22;720;47.738;7.998;2022-12-18T03:55:43;-6.10;92.10
1453;DHT22;720;47.738;7.998;2022-12-18T03:58:11;-6.20;92.10
1453;DHT22;720;47.738;7.998;2022-12-18T04:00:39;-6.20;92.00
1453;DHT22;720;47.738;7.998;2022-12-18T04:03:06;-6.20;92.10
1453;DHT22;720;47.738;7.998;2022-12-18T04:05:34;-6.20;92.00
1453;DHT22;720;47.738;7.998;2022-12-18T04:08:01;-6.20;92.00
1453;DHT22;720;47.738;7.998;2022-12-18T04:10:27;-6.10;92.00
1453;DHT22;720;47.738;7.998;2022-12-18T04:12:56;-6.10;92.00
1453;DHT22;720;47.738;7.998;2022-12-18T04:15:23;-6.10;92.00
1453;DHT22;720;47.738;7.998;2022-12-18T04:17:49;-6.10;91.80
1453;DHT22;720;47.738;7.998;2022-12-18T04:20:16;-6.10;91.70
1453;DHT22;720;47.738;7.998;2022-12-18T04:22:42;-6.10;91.50
1453;DHT22;720;47.738;7.998;2022-12-18T04:25:08;-6.10;91.60
1453;DHT22;720;47.738;7.998;2022-12-18T04:27:34;-6.20;91.50
1453;DHT22;720;47.738;7.998;2022-12-18T04:30:00;-6.30;91.50
1453;DHT22;720;47.738;7.998;2022-12-18T04:32:25;-6.40;91.70
1453;DHT22;720;47.738;7.998;2022-12-18T04:34:51;-6.40;91.80
1453;DHT22;720;47.738;7.998;2022-12-18T04:37:17;-6.40;91.80
1453;DHT22;720;47.738;7.998;2022-12-18T04:39:42;-6.40;91.80
1453;DHT22;720;47.738;7.998;2022-12-18T04:42:08;-6.40;91.70
1453;DHT22;720;47.738;7.998;2022-12-18T04:44:33;-6.40;91.50
1453;DHT22;720;47.738;7.998;2022-12-18T04:46:59;-6.40;91.40
1453;DHT22;720;47.738;7.998;2022-12-18T04:49:25;-6.40;91.40
1453;DHT22;720;47.738;7.998;2022-12-18T04:51:50;-6.40;91.50
1453;DHT22;720;47.738;7.998;2022-12-18T04:54:17;-6.50;91.50
1453;DHT22;720;47.738;7.998;2022-12-18T04:56:42;-6.50;91.60
1453;DHT22;720;47.738;7.998;2022-12-18T04:59:08;-6.50;91.60
1453;DHT22;720;47.738;7.998;2022-12-18T05:01:33;-6.50;91.50
1453;DHT22;720;47.738;7.998;2022-12-18T05:03:59;-6.50;91.60
1453;DHT22;720;47.738;7.998;2022-12-18T05:06:25;-6.60;91.50
1453;DHT22;720;47.738;7.998;2022-12-18T05:08:50;-6.60;91.70
1453;DHT22;720;47.738;7.998;2022-12-18T05:11:16;-6.60;91.70
1453;DHT22;720;47.738;7.998;2022-12-18T05:13:43;-6.60;91.70
1453;DHT22;720;47.738;7.998;2022-12-18T05:16:10;-6.60;91.60
1453;DHT22;720;47.738;7.998;2022-12-18T05:18:36;-6.60;91.60
1453;DHT22;720;47.738;7.998;2022-12-18T05:21:02;-6.70;91.60
1453;DHT22;720;47.738;7.998;2022-12-18T05:23:28;-6.60;91.60
1453;DHT22;720;47.738;7.998;2022-12-18T05:26:00;-6.60;91.50
1453;DHT22;720;47.738;7.998;2022-12-18T05:28:28;-6.70;91.50
1453;DHT22;720;47.738;7.998;2022-12-18T05:30:56;-6.60;91.60
1453;DHT22;720;47.738;7.998;2022-12-18T05:33:23;-6.70;91.40
1453;DHT22;720;47.738;7.998;2022-12-18T05:35:59;-6.70;91.40
1453;DHT22;720;47.738;7.998;2022-12-18T05:38:26;-6.70;91.50
1453;DHT22;720;47.738;7.998;2022-12-18T05:40:53;-6.60;91.50
1453;DHT22;720;47.738;7.998;2022-12-18T05:43:19;-6.50;91.30
1453;DHT22;720;47.738;7.998;2022-12-18T05:45:47;-6.60;91.30
1453;DHT22;720;47.738;7.998;2022-12-18T05:48:13;-6.60;91.20
1453;DHT22;720;47.738;7.998;2022-12-18T05:50:40;-6.60;91.10
1453;DHT22;720;47.738;7.998;2022-12-18T05:53:07;-6.60;91.30
1453;DHT22;720;47.738;7.998;2022-12-18T05:55:37;-6.70;91.30
1453;DHT22;720;47.738;7.998;2022-12-18T05:58:04;-6.70;91.40
1453;DHT22;720;47.738;7.998;2022-12-18T06:00:31;-6.70;91.60
1453;DHT22;720;47.738;7.998;2022-12-18T06:02:58;-6.80;91.60
1453;DHT22;720;47.738;7.998;2022-12-18T06:05:24;-6.70;91.70
1453;DHT22;720;47.738;7.998;2022-12-18T06:07:50;-6.60;91.50
1453;DHT22;720;47.738;7.998;2022-12-18T06:10:16;-6.60;91.30
1453;DHT22;720;47.738;7.998;2022-12-18T06:12:41;-6.70;91.10
1453;DHT22;720;47.738;7.998;2022-12-18T06:15:07;-6.70;91.20
1453;DHT22;720;47.738;7.998;2022-12-18T06:17:33;-6.70;91.30
1453;DHT22;720;47.738;7.998;2022-12-18T06:19:59;-6.80;91.20
1453;DHT22;720;47.738;7.998;2022-12-18T06:22:25;-6.80;91.30
1453;DHT22;720;47.738;7.998;2022-12-18T06:24:51;-6.80;91.40
1453;DHT22;720;47.738;7.998;2022-12-18T06:27:17;-6.80;91.50
1453;DHT22;720;47.738;7.998;2022-12-18T06:29:42;-6.80;91.40
1453;DHT22;720;47.738;7.998;2022-12-18T06:32:08;-6.80;91.20
1453;DHT22;720;47.738;7.998;2022-12-18T06:34:34;-6.80;91.30
1453;DHT22;720;47.738;7.998;2022-12-18T06:37:03;-6.80;91.50
1453;DHT22;720;47.738;7.998;2022-12-18T06:39:31;-6.80;91.40
1453;DHT22;720;47.738;7.998;2022-12-18T06:41:57;-6.80;91.50
1453;DHT22;720;47.738;7.998;2022-12-18T06:44:22;-6.70;91.50
1453;DHT22;720;47.738;7.998;2022-12-18T06:46:48;-6.60;91.50
1453;DHT22;720;47.738;7.998;2022-12-18T06:49:14;-6.60;91.30
1453;DHT22;720;47.738;7.998;2022-12-18T06:51:41;-6.60;91.30
1453;DHT22;720;47.738;7.998;2022-12-18T06:54:07;-6.60;91.30
1453;DHT22;720;47.738;7.998;2022-12-18T06:56:32;-6.70;91.30
1453;DHT22;720;47.738;7.998;2022-12-18T06:58:58;-6.70;91.40
1453;DHT22;720;47.738;7.998;2022-12-18T07:01:24;-6.70;91.30
1453;DHT22;720;47.738;7.998;2022-12-18T07:03:54;-6.70;91.20
1453;DHT22;720;47.738;7.998;2022-12-18T07:06:21;-6.80;91.10
1453;DHT22;720;47.738;7.998;2022-12-18T07:08:48;-6.80;91.20
1453;DHT22;720;47.738;7.998;2022-12-18T07:11:14;-6.80;91.30
1453;DHT22;720;47.738;7.998;2022-12-18T07:13:40;-6.80;91.40
1453;DHT22;720;47.738;7.998;2022-12-18T07:16:07;-6.70;91.50
1453;DHT22;720;47.738;7.998;2022-12-18T07:18:34;-6.60;91.40
1453;DHT22;720;47.738;7.998;2022-12-18T07:21:03;-6.50;91.40
1453;DHT22;720;47.738;7.998;2022-12-18T07:23:30;-6.50;91.20
1453;DHT22;720;47.738;7.998;2022-12-18T07:25:55;-6.50;91.10
1453;DHT22;720;47.738;7.998;2022-12-18T07:28:21;-6.50;91.10
1453;DHT22;720;47.738;7.998;2022-12-18T07:30:46;-6.50;91.10
1453;DHT22;720;47.738;7.998;2022-12-18T07:33:12;-6.40;91.10
1453;DHT22;720;47.738;7.998;2022-12-18T07:35:38;-6.30;91.10
1453;DHT22;720;47.738;7.998;2022-12-18T07:38:03;-6.40;91.00
1453;DHT22;720;47.738;7.998;2022-12-18T07:40:29;-6.40;91.10
1453;DHT22;720;47.738;7.998;2022-12-18T07:42:54;-6.40;91.20
1453;DHT22;720;47.738;7.998;2022-12-18T07:45:20;-6.30;91.30
1453;DHT22;720;47.738;7.998;2022-12-18T07:47:45;-6.30;91.50
1453;DHT22;720;47.738;7.998;2022-12-18T07:50:11;-6.20;91.00
1453;DHT22;720;47.738;7.998;2022-12-18T07:52:38;-6.10;91.00
1453;DHT22;720;47.738;7.998;2022-12-18T07:55:04;-6.10;90.90
1453;DHT22;720;47.738;7.998;2022-12-18T07:57:30;-6.10;91.00
1453;DHT22;720;47.738;7.998;2022-12-18T07:59:55;-6.00;91.20
1453;DHT22;720;47.738;7.998;2022-12-18T08:02:21;-6.00;91.20
1453;DHT22;720;47.738;7.998;2022-12-18T08:04:46;-5.90;91.20
1453;DHT22;720;47.738;7.998;2022-12-18T08:07:12;-5.90;91.00
1453;DHT22;720;47.738;7.998;2022-12-18T08:09:38;-5.90;91.00
1453;DHT22;720;47.738;7.998;2022-12-18T08:12:04;-5.90;91.20
1453;DHT22;720;47.738;7.998;2022-12-18T08:14:30;-5.70;91.70
1453;DHT22;720;47.738;7.998;2022-12-18T08:16:55;-5.00;92.90
1453;DHT22;720;47.738;7.998;2022-12-18T08:19:21;-4.20;93.10
1453;DHT22;720;47.738;7.998;2022-12-18T08:21:47;-3.30;92.30
1453;DHT22;720;47.738;7.998;2022-12-18T08:24:12;-2.50;91.30
1453;DHT22;720;47.738;7.998;2022-12-18T08:26:38;-1.70;90.40
1453;DHT22;720;47.738;7.998;2022-12-18T08:29:04;-1.00;89.30
1453;DHT22;720;47.738;7.998;2022-12-18T08:31:30;-0.30;87.70
1453;DHT22;720;47.738;7.998;2022-12-18T08:33:56;0.10;83.60
1453;DHT22;720;47.738;7.998;2022-12-18T08:36:23;0.40;81.70
1453;DHT22;720;47.738;7.998;2022-12-18T08:38:49;0.50;76.60
1453;DHT22;720;47.738;7.998;2022-12-18T08:41:16;0.60;74.50
1453;DHT22;720;47.738;7.998;2022-12-18T08:43:42;0.90;74.90
1453;DHT22;720;47.738;7.998;2022-12-18T08:46:32;1.40;75.00
1453;DHT22;720;47.738;7.998;2022-12-18T08:48:59;2.40;74.10
1453;DHT22;720;47.738;7.998;2022-12-18T08:51:24;3.00;70.20
1453;DHT22;720;47.738;7.998;2022-12-18T08:53:50;3.40;68.40
1453;DHT22;720;47.738;7.998;2022-12-18T08:56:16;3.60;66.70
1453;DHT22;720;47.738;7.998;2022-12-18T08:58:42;3.80;67.00
1453;DHT22;720;47.738;7.998;2022-12-18T09:01:10;4.10;68.60
1453;DHT22;720;47.738;7.998;2022-12-18T09:03:36;4.70;65.90
1453;DHT22;720;47.738;7.998;2022-12-18T09:06:02;5.30;63.40
1453;DHT22;720;47.738;7.998;2022-12-18T09:08:28;6.10;60.00
1453;DHT22;720;47.738;7.998;2022-12-18T09:10:54;6.80;58.80
1453;DHT22;720;47.738;7.998;2022-12-18T09:13:20;7.60;55.70
1453;DHT22;720;47.738;7.998;2022-12-18T09:15:48;8.50;53.20
1453;DHT22;720;47.738;7.998;2022-12-18T09:18:16;9.60;50.90
1453;DHT22;720;47.738;7.998;2022-12-18T09:20:42;10.50;46.60
1453;DHT22;720;47.738;7.998;2022-12-18T09:23:08;11.20;44.00
1453;DHT22;720;47.738;7.998;2022-12-18T09:25:35;11.50;41.60
1453;DHT22;720;47.738;7.998;2022-12-18T09:28:06;11.60;40.90
1453;DHT22;720;47.738;7.998;2022-12-18T09:30:32;11.70;40.80
1453;DHT22;720;47.738;7.998;2022-12-18T09:33:01;11.80;39.80
1453;DHT22;720;47.738;7.998;2022-12-18T09:35:26;12.10;39.30
1453;DHT22;720;47.738;7.998;2022-12-18T09:37:53;12.30;38.90
1453;DHT22;720;47.738;7.998;2022-12-18T09:40:22;12.40;38.00
1453;DHT22;720;47.738;7.998;2022-12-18T09:42:53;12.60;38.50
1453;DHT22;720;47.738;7.998;2022-12-18T09:45:21;13.00;37.90
1453;DHT22;720;47.738;7.998;2022-12-18T09:47:48;13.60;37.60
1453;DHT22;720;47.738;7.998;2022-12-18T09:50:31;14.00;36.60
1453;DHT22;720;47.738;7.998;2022-12-18T09:53:02;14.20;36.20
1453;DHT22;720;47.738;7.998;2022-12-18T09:55:41;14.50;36.20
1453;DHT22;720;47.738;7.998;2022-12-18T09:58:19;15.00;35.20
1453;DHT22;720;47.738;7.998;2022-12-18T10:00:46;15.50;35.10
1453;DHT22;720;47.738;7.998;2022-12-18T10:03:13;15.70;33.70
1453;DHT22;720;47.738;7.998;2022-12-18T10:08:42;15.40;33.90
1453;DHT22;720;47.738;7.998;2022-12-18T10:17:26;15.50;34.40
1453;DHT22;720;47.738;7.998;2022-12-18T10:22:43;15.40;34.70
1453;DHT22;720;47.738;7.998;2022-12-18T10:25:25;15.20;34.60
1453;DHT22;720;47.738;7.998;2022-12-18T10:27:58;14.90;35.00
1453;DHT22;720;47.738;7.998;2022-12-18T10:30:26;14.50;35.80
1453;DHT22;720;47.738;7.998;2022-12-18T10:32:52;14.00;36.20
1453;DHT22;720;47.738;7.998;2022-12-18T10:35:26;13.70;36.60
1453;DHT22;720;47.738;7.998;2022-12-18T10:43:39;12.90;37.90
1453;DHT22;720;47.738;7.998;2022-12-18T10:48:55;12.10;38.50
1453;DHT22;720;47.738;7.998;2022-12-18T10:51:33;11.70;38.90
1453;DHT22;720;47.738;7.998;2022-12-18T10:54:02;11.20;39.90
1453;DHT22;720;47.738;7.998;2022-12-18T10:56:30;10.60;41.60
1453;DHT22;720;47.738;7.998;2022-12-18T10:58:59;9.60;44.60
1453;DHT22;720;47.738;7.998;2022-12-18T11:01:25;9.00;46.50
1453;DHT22;720;47.738;7.998;2022-12-18T11:06:22;7.90;48.80
1453;DHT22;720;47.738;7.998;2022-12-18T11:09:20;7.40;49.70
1453;DHT22;720;47.738;7.998;2022-12-18T11:11:52;6.90;51.40
1453;DHT22;720;47.738;7.998;2022-12-18T11:16:49;6.10;54.10
1453;DHT22;720;47.738;7.998;2022-12-18T11:19:37;5.90;55.50
1453;DHT22;720;47.738;7.998;2022-12-18T11:22:27;5.70;56.10
1453;DHT22;720;47.738;7.998;2022-12-18T11:25:06;5.50;56.50
1453;DHT22;720;47.738;7.998;2022-12-18T11:27:48;5.20;57.40
1453;DHT22;720;47.738;7.998;2022-12-18T11:30:28;5.10;58.40
1453;DHT22;720;47.738;7.998;2022-12-18T11:33:15;5.00;59.80
1453;DHT22;720;47.738;7.998;2022-12-18T11:35:53;4.80;61.30
1453;DHT22;720;47.738;7.998;2022-12-18T11:46:13;4.50;64.10
1453;DHT22;720;47.738;7.998;2022-12-18T11:48:44;4.40;65.70
1453;DHT22;720;47.738;7.998;2022-12-18T11:51:25;4.30;65.90
1453;DHT22;720;47.738;7.998;2022-12-18T11:53:51;4.20;67.40
1453;DHT22;720;47.738;7.998;2022-12-18T11:56:32;4.20;69.00
1453;DHT22;720;47.738;7.998;2022-12-18T12:01:51;4.20;72.10
1453;DHT22;720;47.738;7.998;2022-12-18T12:04:40;4.20;73.20
1453;DHT22;720;47.738;7.998;2022-12-18T12:07:21;4.20;73.80
1453;DHT22;720;47.738;7.998;2022-12-18T12:10:15;4.20;74.90
1453;DHT22;720;47.738;7.998;2022-12-18T12:16:03;4.10;76.40
1453;DHT22;720;47.738;7.998;2022-12-18T12:21:58;4.20;78.10
1453;DHT22;720;47.738;7.998;2022-12-18T12:24:38;4.20;79.50
1453;DHT22;720;47.738;7.998;2022-12-18T12:30:00;4.40;80.30
1453;DHT22;720;47.738;7.998;2022-12-18T12:35:47;4.40;79.60
1453;DHT22;720;47.738;7.998;2022-12-18T12:38:18;4.40;80.30
1453;DHT22;720;47.738;7.998;2022-12-18T12:40:56;4.50;81.40
1453;DHT22;720;47.738;7.998;2022-12-18T12:43:43;4.50;82.00
1453;DHT22;720;47.738;7.998;2022-12-18T12:46:11;4.70;82.10
1453;DHT22;720;47.738;7.998;2022-12-18T12:48:47;4.70;81.70
1453;DHT22;720;47.738;7.998;2022-12-18T12:51:35;4.80;82.20
1453;DHT22;720;47.738;7.998;2022-12-18T12:54:05;4.80;81.70
1453;DHT22;720;47.738;7.998;2022-12-18T12:57:12;4.90;81.20
1453;DHT22;720;47.738;7.998;2022-12-18T13:05:48;4.80;82.50
1453;DHT22;720;47.738;7.998;2022-12-18T13:08:50;4.70;83.00
1453;DHT22;720;47.738;7.998;2022-12-18T13:14:27;4.50;84.80
1453;DHT22;720;47.738;7.998;2022-12-18T13:17:17;4.50;85.50
1453;DHT22;720;47.738;7.998;2022-12-18T13:19:51;4.40;86.40
1453;DHT22;720;47.738;7.998;2022-12-18T13:22:35;4.30;87.40
1453;DHT22;720;47.738;7.998;2022-12-18T13:25:02;4.30;87.90
1453;DHT22;720;47.738;7.998;2022-12-18T13:30:51;4.40;88.60
1453;DHT22;720;47.738;7.998;2022-12-18T13:43:46;4.60;88.70
1453;DHT22;720;47.738;7.998;2022-12-18T13:46:29;4.60;88.50
1453;DHT22;720;47.738;7.998;2022-12-18T13:49:02;4.60;88.70
1453;DHT22;720;47.738;7.998;2022-12-18T13:51:32;4.60;88.90
1453;DHT22;720;47.738;7.998;2022-12-18T13:54:00;4.60;88.80
1453;DHT22;720;47.738;7.998;2022-12-18T13:56:31;4.50;88.90
1453;DHT22;720;47.738;7.998;2022-12-18T13:59:24;4.50;89.00
1453;DHT22;720;47.738;7.998;2022-12-18T14:01:55;4.50;89.70
1453;DHT22;720;47.738;7.998;2022-12-18T14:04:35;4.40;90.10
1453;DHT22;720;47.738;7.998;2022-12-18T14:07:16;4.40;90.40
1453;DHT22;720;47.738;7.998;2022-12-18T14:09:50;4.50;90.40
1453;DHT22;720;47.738;7.998;2022-12-18T14:12:27;4.50;90.30
1453;DHT22;720;47.738;7.998;2022-12-18T14:15:20;4.50;90.20
1453;DHT22;720;47.738;7.998;2022-12-18T14:17:47;4.50;90.00
1453;DHT22;720;47.738;7.998;2022-12-18T14:20:15;4.40;90.00
1453;DHT22;720;47.738;7.998;2022-12-18T14:22:46;4.30;90.20
1453;DHT22;720;47.738;7.998;2022-12-18T14:27:43;4.30;90.40
1453;DHT22;720;47.738;7.998;2022-12-18T14:35:28;4.30;90.80
1453;DHT22;720;47.738;7.998;2022-12-18T14:37:59;4.30;90.80
1453;DHT22;720;47.738;7.998;2022-12-18T14:40:32;4.30;90.90
1453;DHT22;720;47.738;7.998;2022-12-18T14:42:58;4.20;91.10
1453;DHT22;720;47.738;7.998;2022-12-18T14:45:37;4.30;91.40
1453;DHT22;720;47.738;7.998;2022-12-18T14:48:16;4.20;91.40
1453;DHT22;720;47.738;7.998;2022-12-18T14:50:43;4.10;91.30
1453;DHT22;720;47.738;7.998;2022-12-18T14:53:20;4.10;91.50
1453;DHT22;720;47.738;7.998;2022-12-18T14:55:48;3.90;91.80
1453;DHT22;720;47.738;7.998;2022-12-18T14:58:15;3.90;92.00
1453;DHT22;720;47.738;7.998;2022-12-18T15:00:41;3.70;92.10
1453;DHT22;720;47.738;7.998;2022-12-18T15:03:08;3.60;92.40
1453;DHT22;720;47.738;7.998;2022-12-18T15:05:35;3.50;92.60
1453;DHT22;720;47.738;7.998;2022-12-18T15:08:02;3.40;92.70
1453;DHT22;720;47.738;7.998;2022-12-18T15:10:30;3.40;93.10
1453;DHT22;720;47.738;7.998;2022-12-18T15:15:52;3.30;93.40
1453;DHT22;720;47.738;7.998;2022-12-18T15:18:20;3.30;93.80
1453;DHT22;720;47.738;7.998;2022-12-18T15:23:32;3.20;94.00
1453;DHT22;720;47.738;7.998;2022-12-18T15:26:02;3.20;94.00
1453;DHT22;720;47.738;7.998;2022-12-18T15:28:43;3.30;94.30
1453;DHT22;720;47.738;7.998;2022-12-18T15:34:00;3.20;94.40
1453;DHT22;720;47.738;7.998;2022-12-18T15:36:29;3.20;94.50
1453;DHT22;720;47.738;7.998;2022-12-18T15:38:56;3.30;94.70
1453;DHT22;720;47.738;7.998;2022-12-18T15:41:22;3.20;94.60
1453;DHT22;720;47.738;7.998;2022-12-18T15:43:51;3.20;94.70
1453;DHT22;720;47.738;7.998;2022-12-18T15:46:21;3.20;94.80
1453;DHT22;720;47.738;7.998;2022-12-18T15:48:52;3.20;95.00
1453;DHT22;720;47.738;7.998;2022-12-18T15:51:23;3.10;95.20
1453;DHT22;720;47.738;7.998;2022-12-18T15:53:52;3.00;95.40
1453;DHT22;720;47.738;7.998;2022-12-18T15:56:19;3.00;95.60
1453;DHT22;720;47.738;7.998;2022-12-18T15:59:15;3.00;95.70
1453;DHT22;720;47.738;7.998;2022-12-18T16:01:43;3.00;95.80
1453;DHT22;720;47.738;7.998;2022-12-18T16:04:14;2.90;96.00
1453;DHT22;720;47.738;7.998;2022-12-18T16:06:40;2.90;96.20
1453;DHT22;720;47.738;7.998;2022-12-18T16:09:07;2.90;96.50
1453;DHT22;720;47.738;7.998;2022-12-18T16:11:35;3.00;96.70
1453;DHT22;720;47.738;7.998;2022-12-18T16:14:15;2.90;96.20
1453;DHT22;720;47.738;7.998;2022-12-18T16:16:41;2.90;96.20
1453;DHT22;720;47.738;7.998;2022-12-18T16:19:07;2.80;96.40
1453;DHT22;720;47.738;7.998;2022-12-18T16:21:32;2.80;97.00
1453;DHT22;720;47.738;7.998;2022-12-18T16:23:58;2.80;96.90
1453;DHT22;720;47.738;7.998;2022-12-18T16:26:24;2.80;96.80
1453;DHT22;720;47.738;7.998;2022-12-18T16:28:49;2.80;96.50
1453;DHT22;720;47.738;7.998;2022-12-18T16:31:15;2.70;96.50
1453;DHT22;720;47.738;7.998;2022-12-18T16:33:41;2.70;96.60
1453;DHT22;720;47.738;7.998;2022-12-18T16:36:07;2.50;96.80
1453;DHT22;720;47.738;7.998;2022-12-18T16:38:33;2.60;97.20
1453;DHT22;720;47.738;7.998;2022-12-18T16:40:59;2.60;97.50
1453;DHT22;720;47.738;7.998;2022-12-18T16:43:42;2.70;97.60
1453;DHT22;720;47.738;7.998;2022-12-18T16:46:08;2.90;97.50
1453;DHT22;720;47.738;7.998;2022-12-18T16:48:34;2.90;97.00
1453;DHT22;720;47.738;7.998;2022-12-18T16:51:01;3.00;96.60
1453;DHT22;720;47.738;7.998;2022-12-18T16:53:28;3.00;96.30
1453;DHT22;720;47.738;7.998;2022-12-18T16:55:55;3.00;96.20
1453;DHT22;720;47.738;7.998;2022-12-18T16:58:21;2.90;96.10
1453;DHT22;720;47.738;7.998;2022-12-18T17:00:46;2.90;96.30
1453;DHT22;720;47.738;7.998;2022-12-18T17:03:12;2.90;96.40
1453;DHT22;720;47.738;7.998;2022-12-18T17:05:38;2.90;96.40
1453;DHT22;720;47.738;7.998;2022-12-18T17:08:03;2.90;96.40
1453;DHT22;720;47.738;7.998;2022-12-18T17:10:29;2.90;96.40
1453;DHT22;720;47.738;7.998;2022-12-18T17:12:55;2.90;96.50
1453;DHT22;720;47.738;7.998;2022-12-18T17:15:20;2.80;96.70
1453;DHT22;720;47.738;7.998;2022-12-18T17:17:46;2.80;97.00
1453;DHT22;720;47.738;7.998;2022-12-18T17:20:12;2.90;97.00
1453;DHT22;720;47.738;7.998;2022-12-18T17:22:37;3.00;96.70
1453;DHT22;720;47.738;7.998;2022-12-18T17:25:03;3.00;96.40
1453;DHT22;720;47.738;7.998;2022-12-18T17:27:29;2.90;96.20
1453;DHT22;720;47.738;7.998;2022-12-18T17:29:54;2.90;96.50
1453;DHT22;720;47.738;7.998;2022-12-18T17:32:20;2.90;96.30
1453;DHT22;720;47.738;7.998;2022-12-18T17:34:46;3.00;96.10
1453;DHT22;720;47.738;7.998;2022-12-18T17:37:12;2.90;96.20
1453;DHT22;720;47.738;7.998;2022-12-18T17:39:38;2.90;96.10
1453;DHT22;720;47.738;7.998;2022-12-18T17:42:03;2.90;96.10
1453;DHT22;720;47.738;7.998;2022-12-18T17:44:29;2.90;96.10
1453;DHT22;720;47.738;7.998;2022-12-18T17:46:55;2.90;96.00
1453;DHT22;720;47.738;7.998;2022-12-18T17:49:20;2.90;95.90
1453;DHT22;720;47.738;7.998;2022-12-18T17:51:46;2.90;95.80
1453;DHT22;720;47.738;7.998;2022-12-18T17:54:12;3.20;96.10
1453;DHT22;720;47.738;7.998;2022-12-18T17:56:38;2.90;96.10
1453;DHT22;720;47.738;7.998;2022-12-18T17:59:04;2.80;96.10
1453;DHT22;720;47.738;7.998;2022-12-18T18:01:31;2.80;96.30
1453;DHT22;720;47.738;7.998;2022-12-18T18:03:56;2.90;96.10
1453;DHT22;720;47.738;7.998;2022-12-18T18:06:24;2.90;95.90
1453;DHT22;720;47.738;7.998;2022-12-18T18:08:50;2.90;95.60
1453;DHT22;720;47.738;7.998;2022-12-18T18:11:18;2.80;95.50
1453;DHT22;720;47.738;7.998;2022-12-18T18:14:20;2.80;95.70
1453;DHT22;720;47.738;7.998;2022-12-18T18:16:48;2.70;95.80
1453;DHT22;720;47.738;7.998;2022-12-18T18:19:17;2.70;96.00
1453;DHT22;720;47.738;7.998;2022-12-18T18:21:44;2.60;96.00
1453;DHT22;720;47.738;7.998;2022-12-18T18:24:11;2.60;96.00
1453;DHT22;720;47.738;7.998;2022-12-18T18:26:38;2.60;95.70
1453;DHT22;720;47.738;7.998;2022-12-18T18:29:05;2.50;95.70
1453;DHT22;720;47.738;7.998;2022-12-18T18:31:32;2.50;95.90
1453;DHT22;720;47.738;7.998;2022-12-18T18:33:59;2.50;96.10
1453;DHT22;720;47.738;7.998;2022-12-18T18:36:25;2.50;96.20